createdAt,value
2024-01-05T00:11:39.940Z,72.176
2024-01-05T00:26:42.195Z,68.829
2024-01-05T00:41:44.355Z,68.288
2024-01-05T00:56:46.381Z,69.143
2024-01-05T01:11:48.788Z,70.139
2024-01-05T01:26:51.078Z,71.339
2024-01-05T01:41:53.107Z,67.073
2024-01-05T01:56:55.283Z,67.611
2024-01-05T02:11:57.441Z,66.71
2024-01-05T02:26:59.533Z,67.332
2024-01-05T02:42:01.626Z,65.33
2024-01-05T02:57:03.728Z,65.357
2024-01-05T03:12:05.898Z,65.307
2024-01-05T03:27:07.987Z,65.437
2024-01-05T03:42:10.220Z,65.841
2024-01-05T03:57:12.307Z,65.668
2024-01-05T04:12:14.335Z,67.114
2024-01-05T04:27:16.493Z,65.538
2024-01-05T04:42:18.595Z,65.917
2024-01-05T04:57:20.578Z,65.847
2024-01-05T05:12:22.612Z,67.021
2024-01-05T05:27:24.633Z,67.084
2024-01-05T05:42:26.648Z,67.867
2024-01-05T05:57:28.816Z,69.781
2024-01-05T06:12:31.018Z,68.315
2024-01-05T06:27:38.821Z,71.79
2024-01-05T06:42:41.664Z,70.306
2024-01-05T06:57:43.816Z,68.602
2024-01-05T07:12:45.839Z,67.229
2024-01-05T07:27:47.927Z,66.695
2024-01-05T07:42:49.933Z,66.719
2024-01-05T07:57:52.026Z,67.223
2024-01-05T08:12:54.106Z,66.824
2024-01-05T08:27:56.269Z,67.059
2024-01-05T08:42:58.422Z,66.741
2024-01-05T08:58:00.427Z,66.15
2024-01-05T09:13:02.520Z,65.514
2024-01-05T09:28:04.693Z,66.452
2024-01-05T09:43:06.777Z,66.144
2024-01-05T09:58:09.010Z,65.682
2024-01-05T10:13:11.036Z,67.251
2024-01-05T10:28:13.122Z,66.485
2024-01-05T10:43:15.200Z,69.378
2024-01-05T10:58:17.279Z,67.574
2024-01-05T11:13:19.328Z,70.82
2024-01-05T11:28:21.352Z,67.559
2024-01-05T11:43:23.620Z,66.489
2024-01-05T11:58:25.818Z,65.991
2024-01-05T12:13:28.316Z,66.03
2024-01-05T12:28:30.355Z,66.274
2024-01-05T12:43:32.518Z,66.156
2024-01-05T12:58:36.177Z,67.81
2024-01-05T13:13:38.214Z,66.388
2024-01-05T13:28:40.335Z,66.561
2024-01-05T13:43:42.505Z,66.441
2024-01-05T13:58:44.980Z,66.366
2024-01-05T14:13:47.043Z,71.991
2024-01-05T14:28:49.027Z,71.024
2024-01-05T14:43:51.161Z,68.837
2024-01-05T14:58:53.259Z,67.418
2024-01-05T15:13:55.430Z,67.16
2024-01-05T15:28:57.515Z,66.682
2024-01-05T15:43:59.527Z,66.346
2024-01-05T15:59:01.549Z,67.263
2024-01-05T16:14:03.570Z,66.941
2024-01-05T16:29:05.605Z,66.211
2024-01-05T16:44:07.650Z,67.247
2024-01-05T16:59:09.666Z,66.45
2024-01-05T17:14:11.643Z,67.094
2024-01-05T17:29:13.609Z,66.829
2024-01-05T17:44:15.684Z,69.382
2024-01-05T17:59:17.716Z,73.566
2024-01-05T18:14:19.741Z,73.263
2024-01-05T18:29:28.249Z,72.73
2024-01-05T18:44:31.851Z,71.808
2024-01-05T18:59:33.912Z,70.352
2024-01-05T19:14:35.879Z,69.215
2024-01-05T19:29:39.567Z,69.273
2024-01-05T19:44:41.821Z,68.004
2024-01-05T19:59:43.823Z,67.464
2024-01-05T20:14:45.822Z,67.011
2024-01-05T20:29:49.648Z,68.508
2024-01-05T20:44:51.813Z,66.989
2024-01-05T20:59:53.730Z,66.226
2024-01-05T21:14:55.674Z,65.133
2024-01-05T21:29:57.755Z,65.502
2024-01-05T21:44:59.772Z,64.703
2024-01-05T22:00:01.774Z,64.757
2024-01-05T22:15:04.051Z,64.021
2024-01-05T22:30:06.101Z,63.716
2024-01-05T22:45:08.192Z,64.208
2024-01-05T23:00:10.318Z,62.243
2024-01-05T23:15:12.433Z,63.664
2024-01-05T23:30:14.609Z,61.814
2024-01-05T23:45:16.755Z,61.842
